createdAt,value
2022-12-13T00:01:55.815Z,-10.90
2022-12-13T00:04:25.349Z,-10.80
2022-12-13T00:06:53.987Z,-10.90
2022-12-13T00:09:21.826Z,-10.90
2022-12-13T00:11:50.196Z,-11.00
2022-12-13T00:14:17.721Z,-11.00
2022-12-13T00:16:49.820Z,-11.00
2022-12-13T00:19:18.422Z,-11.00
2022-12-13T00:21:46.138Z,-10.90
2022-12-13T00:24:13.182Z,-10.90
2022-12-13T00:26:40.563Z,-10.90
2022-12-13T00:29:08.662Z,-11.00
2022-12-13T00:31:58.687Z,-11.10
2022-12-13T00:34:23.526Z,-11.10
2022-12-13T00:36:50.682Z,-11.10
2022-12-13T00:39:18.925Z,-11.10
2022-12-13T00:41:47.304Z,-11.30
2022-12-13T00:44:14.960Z,-11.40
2022-12-13T00:46:42.708Z,-11.50
2022-12-13T00:49:12.955Z,-11.50
2022-12-13T00:51:40.896Z,-11.50
2022-12-13T00:54:07.832Z,-11.40
2022-12-13T00:56:37.584Z,-11.40
2022-12-13T00:59:05.046Z,-11.40
2022-12-13T01:01:36.446Z,-11.30
2022-12-13T01:04:06.444Z,-11.10
2022-12-13T01:06:45.048Z,-11.10
2022-12-13T01:09:27.176Z,-11.20
2022-12-13T01:12:00.373Z,-11.30
2022-12-13T01:14:28.780Z,-11.50
2022-12-13T01:16:56.096Z,-11.70
2022-12-13T01:19:25.672Z,-11.70
2022-12-13T01:22:04.627Z,-11.80
2022-12-13T01:24:32.498Z,-11.80
2022-12-13T01:27:00.420Z,-11.70
2022-12-13T01:29:27.939Z,-11.80
2022-12-13T01:31:55.356Z,-11.80
2022-12-13T01:34:26.246Z,-11.80
2022-12-13T01:36:58.322Z,-11.80
2022-12-13T01:39:27.413Z,-11.70
2022-12-13T01:41:59.350Z,-11.70
2022-12-13T01:45:04.627Z,-11.80
2022-12-13T01:47:48.948Z,-11.90
2022-12-13T01:50:27.488Z,-12.00
2022-12-13T01:52:57.232Z,-12.00
2022-12-13T01:55:33.239Z,-12.00
2022-12-13T01:58:08.979Z,-12.00
2022-12-13T02:00:36.947Z,-12.00
2022-12-13T02:03:08.781Z,-11.90
2022-12-13T02:06:07.989Z,-11.90
2022-12-13T02:08:37.411Z,-11.90
2022-12-13T02:11:06.538Z,-11.90
2022-12-13T02:13:33.462Z,-11.80
2022-12-13T02:16:29.437Z,-11.80
2022-12-13T02:19:33.882Z,-11.80
2022-12-13T02:23:01.248Z,-11.80
2022-12-13T02:26:07.287Z,-11.80
2022-12-13T02:29:43.418Z,-11.60
2022-12-13T02:32:51.763Z,-11.60
2022-12-13T02:35:44.650Z,-11.70
2022-12-13T02:38:41.049Z,-11.70
2022-12-13T02:41:23.203Z,-11.60
2022-12-13T02:44:04.105Z,-11.60
2022-12-13T02:47:21.994Z,-11.50
2022-12-13T02:49:57.588Z,-11.30
2022-12-13T02:52:30.812Z,-11.40
2022-12-13T02:54:59.148Z,-11.50
2022-12-13T02:57:38.924Z,-11.50
2022-12-13T03:00:17.705Z,-11.50
2022-12-13T03:03:26.214Z,-11.40
2022-12-13T03:06:33.302Z,-11.50
2022-12-13T03:09:40.756Z,-11.50
2022-12-13T03:13:14.977Z,-11.60
2022-12-13T03:15:57.124Z,-11.50
2022-12-13T03:18:29.116Z,-11.40
2022-12-13T03:21:05.806Z,-11.50
2022-12-13T03:23:33.169Z,-11.60
2022-12-13T03:26:09.874Z,-11.60
2022-12-13T03:28:39.235Z,-11.60
2022-12-13T03:31:07.198Z,-11.60
2022-12-13T03:33:34.699Z,-11.70
2022-12-13T03:36:02.559Z,-11.70
2022-12-13T03:38:30.494Z,-11.80
2022-12-13T03:41:13.930Z,-11.80
2022-12-13T03:43:41.529Z,-11.80
2022-12-13T03:46:09.526Z,-11.80
2022-12-13T03:48:36.883Z,-11.80
2022-12-13T03:51:04.146Z,-11.80
2022-12-13T03:53:33.176Z,-11.70
2022-12-13T03:56:04.413Z,-11.80
2022-12-13T03:58:35.777Z,-11.70
2022-12-13T04:01:15.166Z,-11.70
2022-12-13T04:03:45.902Z,-11.70
2022-12-13T04:06:22.534Z,-11.70
2022-12-13T04:08:52.396Z,-11.80
2022-12-13T04:11:43.022Z,-11.80
2022-12-13T04:14:21.933Z,-11.80
2022-12-13T04:16:52.425Z,-11.70
2022-12-13T04:19:23.056Z,-11.60
2022-12-13T04:21:54.059Z,-11.60
2022-12-13T04:24:31.424Z,-11.50
2022-12-13T04:27:01.345Z,-11.40
2022-12-13T04:29:33.862Z,-11.40
2022-12-13T04:32:04.170Z,-11.40
2022-12-13T04:34:36.851Z,-11.50
2022-12-13T04:37:05.476Z,-11.30
2022-12-13T04:39:34.255Z,-11.00
2022-12-13T04:42:01.710Z,-10.50
2022-12-13T04:44:32.573Z,-9.80
2022-12-13T04:47:03.779Z,-9.20
2022-12-13T04:49:32.152Z,-9.00
2022-12-13T04:52:01.561Z,-9.10
2022-12-13T04:54:35.610Z,-9.30
2022-12-13T04:57:10.696Z,-9.60
2022-12-13T04:59:38.899Z,-9.80
2022-12-13T05:02:10.035Z,-9.80
2022-12-13T05:04:36.960Z,-9.80
2022-12-13T05:07:04.148Z,-9.60
2022-12-13T05:09:31.383Z,-9.30
2022-12-13T05:12:01.553Z,-9.20
2022-12-13T05:14:32.711Z,-9.10
2022-12-13T05:17:01.527Z,-9.10
2022-12-13T05:19:30.539Z,-9.00
2022-12-13T05:22:01.872Z,-9.00
2022-12-13T05:24:31.616Z,-9.00
2022-12-13T05:27:00.039Z,-8.90
2022-12-13T05:29:27.750Z,-9.00
2022-12-13T05:31:54.643Z,-9.10
2022-12-13T05:34:21.504Z,-9.20
2022-12-13T05:36:48.344Z,-9.20
2022-12-13T05:39:29.138Z,-9.30
2022-12-13T05:42:01.755Z,-9.40
2022-12-13T05:44:32.867Z,-9.40
2022-12-13T05:47:02.165Z,-9.40
2022-12-13T05:49:30.032Z,-9.50
2022-12-13T05:51:56.886Z,-9.40
2022-12-13T05:54:23.824Z,-9.40
2022-12-13T05:56:50.652Z,-9.30
2022-12-13T05:59:17.791Z,-9.30
2022-12-13T06:01:44.647Z,-9.30
2022-12-13T06:04:13.096Z,-9.30
2022-12-13T06:06:50.974Z,-9.40
2022-12-13T06:09:20.066Z,-9.40
2022-12-13T06:11:48.305Z,-9.50
2022-12-13T06:14:21.637Z,-9.50
2022-12-13T06:16:52.423Z,-9.70
2022-12-13T06:19:22.558Z,-9.90
2022-12-13T06:21:52.538Z,-10.00
2022-12-13T06:24:23.246Z,-10.10
2022-12-13T06:26:51.369Z,-10.30
2022-12-13T06:29:24.588Z,-10.30
2022-12-13T06:32:02.222Z,-10.40
2022-12-13T06:34:35.725Z,-10.30
2022-12-13T06:37:08.423Z,-10.30
2022-12-13T06:39:35.478Z,-10.30
2022-12-13T06:42:06.442Z,-10.20
2022-12-13T06:44:34.750Z,-10.30
2022-12-13T06:47:12.359Z,-10.30
2022-12-13T06:49:43.842Z,-10.40
2022-12-13T06:52:14.033Z,-10.40
2022-12-13T06:54:43.249Z,-10.50
2022-12-13T06:57:13.654Z,-10.70
2022-12-13T06:59:41.288Z,-10.90
2022-12-13T07:02:15.339Z,-10.90
2022-12-13T07:04:51.419Z,-10.90
2022-12-13T07:07:18.266Z,-10.90
2022-12-13T07:09:45.191Z,-10.80
2022-12-13T07:12:12.010Z,-10.70
2022-12-13T07:14:40.641Z,-10.60
2022-12-13T07:17:08.448Z,-10.60
2022-12-13T07:19:36.016Z,-10.60
2022-12-13T07:22:07.659Z,-10.60
2022-12-13T07:24:35.600Z,-10.60
2022-12-13T07:27:04.377Z,-10.50
2022-12-13T07:29:31.515Z,-10.10
2022-12-13T07:32:01.681Z,-9.50
2022-12-13T07:34:30.429Z,-8.90
2022-12-13T07:36:57.411Z,-8.50
2022-12-13T07:39:26.172Z,-8.00
2022-12-13T07:41:56.521Z,-7.60
2022-12-13T07:44:24.892Z,-7.30
2022-12-13T07:46:52.081Z,-6.80
2022-12-13T07:49:19.553Z,-6.50
2022-12-13T07:51:46.568Z,-6.30
2022-12-13T07:54:13.488Z,-6.10
2022-12-13T07:56:40.532Z,-6.10
2022-12-13T07:59:08.633Z,-6.10
2022-12-13T08:01:35.665Z,-6.10
2022-12-13T08:04:04.781Z,-6.00
2022-12-13T08:06:38.105Z,-5.90
2022-12-13T08:09:05.861Z,-5.80
2022-12-13T08:11:33.180Z,-5.50
2022-12-13T08:14:00.493Z,-5.30
2022-12-13T08:16:29.637Z,-5.00
2022-12-13T08:19:02.365Z,-4.80
2022-12-13T08:22:01.299Z,-4.50
2022-12-13T08:24:30.779Z,-4.20
2022-12-13T08:27:03.232Z,-4.20
2022-12-13T08:29:35.954Z,-4.40
2022-12-13T08:32:08.737Z,-4.40
2022-12-13T08:34:36.735Z,-4.20
2022-12-13T08:37:04.845Z,-3.90
2022-12-13T08:39:38.724Z,-3.30
2022-12-13T08:42:18.702Z,-3.00
2022-12-13T08:44:49.806Z,-2.70
2022-12-13T08:47:24.826Z,-2.60
2022-12-13T08:50:02.377Z,-2.30
2022-12-13T08:52:39.011Z,-1.80
2022-12-13T08:55:13.401Z,-1.70
2022-12-13T08:57:42.719Z,-1.50
2022-12-13T09:03:47.880Z,-1.20
2022-12-13T09:06:17.621Z,-1.00
2022-12-13T09:08:51.526Z,-0.70
2022-12-13T09:11:23.809Z,-0.30
2022-12-13T09:14:02.259Z,0.30
2022-12-13T09:16:30.382Z,0.60
2022-12-13T09:19:06.564Z,1.00
2022-12-13T09:21:52.483Z,1.30
2022-12-13T09:24:29.239Z,1.80
2022-12-13T09:27:09.862Z,2.10
2022-12-13T09:29:39.069Z,1.80
2022-12-13T09:32:06.349Z,2.20
2022-12-13T09:34:33.440Z,2.60
2022-12-13T09:37:01.102Z,3.40
2022-12-13T09:39:29.701Z,2.10
2022-12-13T09:42:01.307Z,1.40
2022-12-13T09:44:46.439Z,2.80
2022-12-13T09:47:36.016Z,4.30
2022-12-13T09:50:25.367Z,5.40
2022-12-13T09:53:00.042Z,6.20
2022-12-13T09:55:35.326Z,6.30
2022-12-13T09:58:17.050Z,6.60
2022-12-13T10:00:47.221Z,6.90
2022-12-13T10:03:19.022Z,6.90
2022-12-13T10:06:01.191Z,6.50
2022-12-13T10:08:43.043Z,5.60
2022-12-13T10:11:19.595Z,5.50
2022-12-13T10:14:21.424Z,5.60
2022-12-13T10:16:57.944Z,5.40
2022-12-13T10:19:46.580Z,5.10
2022-12-13T10:22:21.047Z,4.90
2022-12-13T10:25:07.787Z,4.90
2022-12-13T10:27:48.605Z,4.90
2022-12-13T10:30:28.384Z,5.20
2022-12-13T10:33:03.654Z,5.20
2022-12-13T10:35:38.398Z,5.80
2022-12-13T10:38:08.310Z,6.10
2022-12-13T10:40:40.889Z,6.40
2022-12-13T10:43:22.226Z,6.80
2022-12-13T10:46:02.017Z,7.40
2022-12-13T10:48:52.372Z,7.10
2022-12-13T10:51:22.792Z,7.80
2022-12-13T10:54:00.511Z,7.90
2022-12-13T10:56:47.676Z,8.60
2022-12-13T10:59:37.564Z,7.90
2022-12-13T11:02:39.143Z,7.20
2022-12-13T11:05:29.364Z,7.70
2022-12-13T11:08:15.079Z,8.60
2022-12-13T11:10:43.227Z,8.60
2022-12-13T11:13:36.621Z,8.80
2022-12-13T11:16:26.651Z,8.40
2022-12-13T11:18:59.444Z,7.70
2022-12-13T11:21:33.073Z,7.70
2022-12-13T11:24:08.367Z,8.50
2022-12-13T11:26:42.685Z,9.10
2022-12-13T11:29:15.183Z,9.40
2022-12-13T11:32:07.178Z,9.70
2022-12-13T11:35:31.068Z,9.60
2022-12-13T11:38:33.534Z,9.50
2022-12-13T11:41:31.904Z,8.80
2022-12-13T11:44:23.353Z,8.20
2022-12-13T11:46:57.018Z,7.80
2022-12-13T11:49:42.336Z,7.70
2022-12-13T11:52:28.556Z,8.40
2022-12-13T11:55:19.957Z,8.40
2022-12-13T11:59:01.932Z,8.30
2022-12-13T12:01:41.057Z,7.20
2022-12-13T12:04:31.342Z,7.10
2022-12-13T12:07:32.446Z,7.00
2022-12-13T12:10:33.293Z,7.10
2022-12-13T12:13:51.128Z,6.70
2022-12-13T12:17:00.481Z,6.10
2022-12-13T12:19:38.953Z,6.60
2022-12-13T12:22:43.516Z,7.60
2022-12-13T12:25:42.459Z,7.20
2022-12-13T12:28:45.321Z,6.40
2022-12-13T12:31:53.108Z,6.80
2022-12-13T12:35:22.605Z,7.10
2022-12-13T12:38:35.245Z,8.00
2022-12-13T12:41:32.511Z,8.10
2022-12-13T12:44:43.776Z,6.00
2022-12-13T12:51:49.441Z,5.60
2022-12-13T12:55:32.574Z,4.90
2022-12-13T12:58:41.247Z,5.70
2022-12-13T13:01:18.555Z,5.80
2022-12-13T13:03:50.284Z,5.80
2022-12-13T13:06:43.010Z,5.80
2022-12-13T13:09:16.842Z,5.30
2022-12-13T13:11:57.354Z,5.00
2022-12-13T13:14:33.869Z,5.70
2022-12-13T13:17:16.774Z,6.30
2022-12-13T13:20:01.417Z,6.60
2022-12-13T13:22:43.282Z,6.90
2022-12-13T13:25:40.016Z,7.30
2022-12-13T13:28:18.499Z,6.40
2022-12-13T13:31:14.954Z,6.20
2022-12-13T13:33:51.033Z,6.40
2022-12-13T13:36:40.425Z,5.20
2022-12-13T13:39:38.074Z,4.90
2022-12-13T13:42:13.973Z,5.80
2022-12-13T13:44:49.674Z,6.50
2022-12-13T13:47:38.809Z,5.70
2022-12-13T13:50:08.692Z,4.40
2022-12-13T13:52:44.682Z,3.60
2022-12-13T13:56:01.592Z,2.80
2022-12-13T13:59:30.603Z,2.30
2022-12-13T14:03:29.340Z,1.10
2022-12-13T14:06:46.564Z,-0.40
2022-12-13T14:09:57.207Z,-1.50
2022-12-13T14:13:26.968Z,-2.10
2022-12-13T14:16:15.048Z,-2.60
2022-12-13T14:19:18.644Z,-3.00
2022-12-13T14:21:55.100Z,-3.30
2022-12-13T14:24:42.730Z,-3.50
2022-12-13T14:27:36.024Z,-3.70
2022-12-13T14:30:17.973Z,-3.90
2022-12-13T14:32:52.720Z,-4.00
2022-12-13T14:35:32.653Z,-4.20
2022-12-13T14:38:19.196Z,-4.30
2022-12-13T14:41:01.564Z,-4.40
2022-12-13T14:43:33.913Z,-4.50
2022-12-13T14:46:07.873Z,-4.60
2022-12-13T14:48:47.767Z,-4.70
2022-12-13T14:51:34.274Z,-4.90
2022-12-13T14:54:07.700Z,-5.10
2022-12-13T14:56:34.975Z,-5.40
2022-12-13T14:59:12.509Z,-5.60
2022-12-13T15:01:40.605Z,-5.80
2022-12-13T15:04:27.027Z,-6.00
2022-12-13T15:07:07.808Z,-6.20
2022-12-13T15:09:43.892Z,-6.20
2022-12-13T15:12:24.526Z,-6.30
2022-12-13T15:15:18.787Z,-6.50
2022-12-13T15:17:45.793Z,-6.60
2022-12-13T15:20:41.491Z,-6.80
2022-12-13T15:23:20.987Z,-6.90
2022-12-13T15:26:28.739Z,-7.00
2022-12-13T15:29:09.801Z,-7.10
2022-12-13T15:31:39.890Z,-7.20
2022-12-13T15:34:30.298Z,-7.30
2022-12-13T15:37:03.345Z,-7.30
2022-12-13T15:39:37.470Z,-7.40
2022-12-13T15:42:05.075Z,-7.30
2022-12-13T15:44:44.878Z,-7.40
2022-12-13T15:47:27.701Z,-7.40
2022-12-13T15:50:06.421Z,-7.50
2022-12-13T15:52:41.051Z,-7.70
2022-12-13T15:55:10.680Z,-7.80
2022-12-13T15:57:58.528Z,-7.90
2022-12-13T16:00:35.261Z,-7.80
2022-12-13T16:03:18.829Z,-7.60
2022-12-13T16:05:53.048Z,-7.60
2022-12-13T16:08:38.079Z,-7.70
2022-12-13T16:11:07.818Z,-7.70
2022-12-13T16:13:38.140Z,-7.70
2022-12-13T16:16:27.980Z,-7.80
2022-12-13T16:18:59.823Z,-7.90
2022-12-13T16:21:28.773Z,-8.00
2022-12-13T16:23:55.645Z,-8.00
2022-12-13T16:26:28.691Z,-8.10
2022-12-13T16:28:59.343Z,-8.00
2022-12-13T16:31:35.462Z,-7.90
2022-12-13T16:34:05.383Z,-7.90
2022-12-13T16:36:32.923Z,-8.00
2022-12-13T16:38:59.914Z,-8.00
2022-12-13T16:41:27.002Z,-7.90
2022-12-13T16:44:01.340Z,-7.90
2022-12-13T16:47:13.210Z,-7.80
2022-12-13T16:49:27.329Z,-7.80
2022-12-13T16:51:54.962Z,-7.70
2022-12-13T16:54:24.777Z,-7.80
2022-12-13T16:56:53.876Z,-7.80
2022-12-13T16:59:26.988Z,-7.70
2022-12-13T17:01:54.715Z,-7.70
2022-12-13T17:04:26.899Z,-7.60
2022-12-13T17:06:55.037Z,-7.60
2022-12-13T17:09:24.227Z,-7.60
2022-12-13T17:11:51.219Z,-7.50
2022-12-13T17:14:18.076Z,-7.40
2022-12-13T17:16:44.949Z,-7.30
2022-12-13T17:19:14.447Z,-7.20
2022-12-13T17:21:41.441Z,-7.20
2022-12-13T17:24:08.583Z,-7.20
2022-12-13T17:26:35.464Z,-7.20
2022-12-13T17:29:02.874Z,-7.20
2022-12-13T17:31:35.312Z,-7.20
2022-12-13T17:34:04.573Z,-7.20
2022-12-13T17:36:31.972Z,-7.30
2022-12-13T17:38:59.178Z,-7.40
2022-12-13T17:41:26.216Z,-7.40
2022-12-13T17:43:53.084Z,-7.50
2022-12-13T17:46:20.109Z,-7.60
2022-12-13T17:48:47.308Z,-7.50
2022-12-13T17:51:15.495Z,-7.40
2022-12-13T17:53:44.350Z,-7.50
2022-12-13T17:56:17.583Z,-7.40
2022-12-13T17:58:44.596Z,-7.50
2022-12-13T18:01:16.291Z,-7.60
2022-12-13T18:03:43.830Z,-7.60
2022-12-13T18:06:11.830Z,-7.70
2022-12-13T18:08:42.280Z,-7.80
2022-12-13T18:13:58.070Z,-7.70
2022-12-13T18:16:34.104Z,-7.40
2022-12-13T18:19:08.148Z,-7.30
2022-12-13T18:21:36.433Z,-7.30
2022-12-13T18:24:03.949Z,-7.40
2022-12-13T18:26:30.786Z,-7.40
2022-12-13T18:28:57.652Z,-7.30
2022-12-13T18:31:25.568Z,-7.30
2022-12-13T18:33:54.456Z,-7.40
2022-12-13T18:36:25.443Z,-7.40
2022-12-13T18:38:53.241Z,-7.30
2022-12-13T18:41:26.259Z,-7.30
2022-12-13T18:44:01.672Z,-7.30
2022-12-13T18:46:34.958Z,-7.20
2022-12-13T18:49:02.393Z,-7.10
2022-12-13T18:51:29.270Z,-7.00
2022-12-13T18:53:56.779Z,-6.80
2022-12-13T18:56:24.457Z,-6.60
2022-12-13T18:58:52.267Z,-6.50
2022-12-13T19:01:20.912Z,-6.40
2022-12-13T19:03:48.866Z,-6.30
2022-12-13T19:06:24.647Z,-6.20
2022-12-13T19:08:56.727Z,-6.20
2022-12-13T19:11:27.004Z,-6.30
2022-12-13T19:13:55.394Z,-6.10
2022-12-13T19:16:25.251Z,-6.00
2022-12-13T19:18:52.537Z,-5.80
2022-12-13T19:21:22.768Z,-5.70
2022-12-13T19:23:57.057Z,-5.70
2022-12-13T19:26:28.244Z,-5.70
2022-12-13T19:28:58.349Z,-5.60
2022-12-13T19:31:31.848Z,-5.60
2022-12-13T19:34:01.884Z,-5.50
2022-12-13T19:36:32.151Z,-5.50
2022-12-13T19:38:59.624Z,-5.50
2022-12-13T19:41:32.156Z,-5.50
2022-12-13T19:44:01.723Z,-5.50
2022-12-13T19:46:28.623Z,-5.50
2022-12-13T19:48:55.563Z,-5.60
2022-12-13T19:51:23.637Z,-5.60
2022-12-13T19:53:50.959Z,-5.60
2022-12-13T19:56:22.524Z,-5.50
2022-12-13T19:58:51.164Z,-5.50
2022-12-13T20:01:18.854Z,-5.50
2022-12-13T20:03:46.947Z,-5.50
2022-12-13T20:06:19.879Z,-5.50
2022-12-13T20:08:47.171Z,-5.60
2022-12-13T20:11:20.368Z,-5.60
2022-12-13T20:13:52.427Z,-5.60
2022-12-13T20:16:24.897Z,-5.60
2022-12-13T20:19:01.423Z,-5.70
2022-12-13T20:21:29.635Z,-5.60
2022-12-13T20:23:58.089Z,-5.60
2022-12-13T20:26:30.168Z,-5.60
2022-12-13T20:28:57.800Z,-5.60
2022-12-13T20:31:33.073Z,-5.60
2022-12-13T20:34:09.817Z,-5.60
2022-12-13T20:36:37.754Z,-5.60
2022-12-13T20:39:05.756Z,-5.60
2022-12-13T20:41:36.285Z,-5.70
2022-12-13T20:44:07.480Z,-5.60
2022-12-13T20:46:35.579Z,-5.60
2022-12-13T20:49:09.184Z,-5.60
2022-12-13T20:51:41.528Z,-5.60
2022-12-13T20:54:09.932Z,-5.60
2022-12-13T20:56:39.747Z,-5.60
2022-12-13T20:59:12.763Z,-5.60
2022-12-13T21:01:41.806Z,-5.60
2022-12-13T21:04:10.975Z,-5.60
2022-12-13T21:06:41.451Z,-5.60
2022-12-13T21:09:12.105Z,-5.60
2022-12-13T21:11:47.711Z,-5.60
2022-12-13T21:14:25.526Z,-5.60
2022-12-13T21:16:56.277Z,-5.60
2022-12-13T21:19:39.508Z,-5.70
2022-12-13T21:22:07.197Z,-5.80
2022-12-13T21:24:34.061Z,-5.90
2022-12-13T21:27:01.006Z,-6.00
2022-12-13T21:29:27.967Z,-6.00
2022-12-13T21:31:55.183Z,-6.00
2022-12-13T21:34:22.737Z,-5.90
2022-12-13T21:36:52.312Z,-5.90
2022-12-13T21:39:29.089Z,-5.90
2022-12-13T21:41:57.400Z,-5.90
2022-12-13T21:44:24.597Z,-6.00
2022-12-13T21:49:39.053Z,-5.90
2022-12-13T21:52:05.997Z,-5.90
2022-12-13T21:54:33.010Z,-5.90
2022-12-13T21:57:18.640Z,-5.80
2022-12-13T21:59:46.278Z,-5.80
2022-12-13T22:02:19.151Z,-5.70
2022-12-13T22:04:57.364Z,-5.70
2022-12-13T22:07:33.213Z,-5.70
2022-12-13T22:10:02.262Z,-5.80
2022-12-13T22:12:41.626Z,-5.80
2022-12-13T22:15:15.613Z,-5.80
2022-12-13T22:17:43.314Z,-5.90
2022-12-13T22:20:15.298Z,-6.00
2022-12-13T22:22:45.242Z,-6.00
2022-12-13T22:25:12.261Z,-5.90
2022-12-13T22:27:39.118Z,-5.90
2022-12-13T22:30:07.319Z,-5.80
2022-12-13T22:32:34.264Z,-5.70
2022-12-13T22:35:01.170Z,-5.70
2022-12-13T22:37:28.036Z,-5.60
2022-12-13T22:39:55.024Z,-5.60
2022-12-13T22:42:22.279Z,-5.60
2022-12-13T22:44:49.194Z,-5.60
2022-12-13T22:47:16.424Z,-5.60
2022-12-13T22:49:43.249Z,-5.60
2022-12-13T22:52:10.410Z,-5.60
2022-12-13T22:54:37.286Z,-5.60
2022-12-13T22:57:04.442Z,-5.50
2022-12-13T22:59:31.412Z,-5.50
2022-12-13T23:02:02.617Z,-5.50
2022-12-13T23:04:31.721Z,-5.50
2022-12-13T23:06:58.879Z,-5.50
2022-12-13T23:09:25.715Z,-5.50
2022-12-13T23:12:11.401Z,-5.50
2022-12-13T23:14:38.245Z,-5.60
2022-12-13T23:17:05.753Z,-5.50
2022-12-13T23:19:49.537Z,-5.60
2022-12-13T23:22:24.862Z,-5.60
2022-12-13T23:24:53.349Z,-5.60
2022-12-13T23:27:23.723Z,-5.60
2022-12-13T23:29:50.615Z,-5.60
2022-12-13T23:32:18.353Z,-5.60
2022-12-13T23:34:45.479Z,-5.60
2022-12-13T23:37:12.332Z,-5.60
2022-12-13T23:39:39.264Z,-5.60
2022-12-13T23:42:06.210Z,-5.60
2022-12-13T23:44:33.196Z,-5.60
2022-12-13T23:47:00.168Z,-5.60
2022-12-13T23:49:27.024Z,-5.60
2022-12-13T23:51:54.076Z,-5.60
2022-12-13T23:54:20.957Z,-5.60
2022-12-13T23:56:48.164Z,-5.60
2022-12-13T23:59:15.032Z,-5.60
